KPHL/PHL METAR and TAF weather

Enter ICAO airport designator
Station Type Date Time Source
KPHL METAR 2019/10/15 02:54 UTC NOAA

KPHL 150254Z 34005KT 10SM CLR 17/04 A3005 RMK AO2 SLP177 T01670044 53020 $


Station Type Date Time Source
KPHL Decoded METAR 2019/10/15 02:54 UTC NOAA

PHILADELPHIA INTERNATIONAL AIRPT, PA, United States (KPHL) 39-52N 075-14W 18M
Oct 14, 2019 - 10:54 PM EDT / 2019.10.15 0254 UTC
Wind: from the NNW (340 degrees) at 6 MPH (5 KT):0
Visibility: 10 mile(s):0
Sky conditions: clear
Temperature: 62.1 F (16.7 C)
Dew Point: 39.9 F (4.4 C)
Relative Humidity: 43%
Pressure (altimeter): 30.05 in. Hg (1017 hPa)
Pressure tendency: 0.06 inches (2.0 hPa) higher than three hours ago
ob: KPHL 150254Z 34005KT 10SM CLR 17/04 A3005 RMK AO2 SLP177 T01670044 53020
cycle: 3

Station Type Date Time Source
KPHL TAF 2019/10/15 03:10 UTC NOAA

TAF
AMD KPHL 150301Z 1503/1606 35005KT P6SM SKC
FM151600 VRB03KT P6SM SKC
FM151900 20007KT P6SM SKC
FM160300 VRB03KT P6SM BKN250

Example: see airport list